createdAt,value
2023-01-12T00:01:45.238Z,97768.47
2023-01-12T00:04:17.211Z,97764.16
2023-01-12T00:06:50.754Z,97763.84
2023-01-12T00:09:21.116Z,97767.22
2023-01-12T00:11:51.391Z,97779.16
2023-01-12T00:14:21.827Z,97772.69
2023-01-12T00:16:52.099Z,97760.06
2023-01-12T00:19:24.407Z,97767.41
2023-01-12T00:22:01.453Z,97766.09
2023-01-12T00:24:34.713Z,97774.66
2023-01-12T00:27:07.485Z,97768.91
2023-01-12T00:29:39.067Z,97757.38
2023-01-12T00:32:13.204Z,97765.31
2023-01-12T00:34:43.487Z,97755.78
2023-01-12T00:37:16.511Z,97758.22
2023-01-12T00:40:00.934Z,97755.47
2023-01-12T00:42:44.337Z,97759.31
2023-01-12T00:45:26.582Z,97759.63
2023-01-12T00:47:56.942Z,97764.75
2023-01-12T00:50:27.538Z,97762.44
2023-01-12T00:53:00.482Z,97758.59
2023-01-12T00:55:30.939Z,97758.47
2023-01-12T00:58:01.266Z,97763.88
2023-01-12T01:00:31.644Z,97758.84
2023-01-12T01:03:02.080Z,97760.88
2023-01-12T01:05:33.778Z,97762.44
2023-01-12T01:08:07.685Z,97756.63
2023-01-12T01:10:38.419Z,97753.53
2023-01-12T01:13:08.717Z,97753.16
2023-01-12T01:15:39.633Z,97767.69
2023-01-12T01:18:10.037Z,97768.25
2023-01-12T01:20:40.283Z,97770.81
2023-01-12T01:23:13.162Z,97765.50
2023-01-12T01:25:43.516Z,97763.41
2023-01-12T01:28:13.744Z,97758.66
2023-01-12T01:30:44.211Z,97759.69
2023-01-12T01:33:14.623Z,97767.63
2023-01-12T01:35:45.041Z,97771.59
2023-01-12T01:38:18.060Z,97758.81
2023-01-12T01:40:48.431Z,97766.47
2023-01-12T01:43:25.695Z,97783.06
2023-01-12T01:46:05.097Z,97785.69
2023-01-12T01:48:40.332Z,97780.25
2023-01-12T01:51:15.302Z,97768.03
2023-01-12T01:53:50.327Z,97758.66
2023-01-12T01:56:25.631Z,97748.41
2023-01-12T01:59:01.891Z,97737.16
2023-01-12T02:01:32.506Z,97736.53
2023-01-12T02:04:03.699Z,97745.38
2023-01-12T02:06:34.484Z,97740.47
2023-01-12T02:09:13.161Z,97749.38
2023-01-12T02:11:57.004Z,97728.56
2023-01-12T02:14:52.349Z,97720.44
2023-01-12T02:17:41.461Z,97723.19
2023-01-12T02:20:52.695Z,97722.09
2023-01-12T02:24:24.158Z,97717.69
2023-01-12T02:27:30.063Z,97703.59
2023-01-12T02:30:50.576Z,97708.34
2023-01-12T02:33:38.355Z,97705.28
2023-01-12T02:36:19.912Z,97703.03
2023-01-12T02:38:55.200Z,97697.97
2023-01-12T02:41:42.803Z,97689.38
2023-01-12T02:44:22.413Z,97686.59
2023-01-12T02:46:54.810Z,97684.78
2023-01-12T02:49:31.787Z,97705.59
2023-01-12T02:52:08.554Z,97679.41
2023-01-12T02:54:40.414Z,97684.66
2023-01-12T02:57:13.754Z,97692.66
2023-01-12T02:59:50.592Z,97697.53
2023-01-12T03:02:25.006Z,97679.16
2023-01-12T03:04:58.083Z,97684.22
2023-01-12T03:07:37.847Z,97679.78
2023-01-12T03:10:29.909Z,97677.50
2023-01-12T03:13:06.164Z,97691.88
2023-01-12T03:15:38.798Z,97684.50
2023-01-12T03:18:17.419Z,97679.50
2023-01-12T03:20:55.134Z,97673.22
2023-01-12T03:23:32.068Z,97670.91
2023-01-12T03:26:04.060Z,97670.47
2023-01-12T03:28:39.229Z,97668.06
2023-01-12T03:31:12.370Z,97662.53
2023-01-12T03:33:45.502Z,97661.78
2023-01-12T03:36:28.839Z,97675.41
2023-01-12T03:39:16.456Z,97675.56
2023-01-12T03:41:59.525Z,97670.22
2023-01-12T03:44:39.919Z,97683.97
2023-01-12T03:47:17.461Z,97681.41
2023-01-12T03:49:52.467Z,97663.34
2023-01-12T03:52:27.934Z,97670.88
2023-01-12T03:55:00.855Z,97669.97
2023-01-12T03:57:32.038Z,97654.34
2023-01-12T04:00:04.142Z,97652.19
2023-01-12T04:02:42.914Z,97649.56
2023-01-12T04:05:15.583Z,97651.25
2023-01-12T04:07:48.785Z,97650.66
2023-01-12T04:10:19.852Z,97643.63
2023-01-12T04:12:53.116Z,97649.13
2023-01-12T04:15:23.628Z,97643.47
2023-01-12T04:17:54.152Z,97642.06
2023-01-12T04:20:25.438Z,97632.59
2023-01-12T04:22:55.461Z,97640.72
2023-01-12T04:25:27.029Z,97633.25
2023-01-12T04:28:01.865Z,97624.69
2023-01-12T04:30:33.719Z,97617.19
2023-01-12T04:33:09.442Z,97619.78
2023-01-12T04:35:39.797Z,97626.72
2023-01-12T04:38:12.859Z,97608.81
2023-01-12T04:40:43.177Z,97621.50
2023-01-12T04:43:13.483Z,97599.94
2023-01-12T04:45:44.377Z,97610.47
2023-01-12T04:48:16.556Z,97635.09
2023-01-12T04:50:47.223Z,97599.28
2023-01-12T04:53:22.018Z,97605.84
2023-01-12T04:55:52.254Z,97588.72
2023-01-12T04:58:22.569Z,97584.63
2023-01-12T05:00:52.944Z,97590.72
2023-01-12T05:03:23.327Z,97614.31
2023-01-12T05:05:53.665Z,97595.91
2023-01-12T05:08:38.893Z,97592.88
2023-01-12T05:11:09.389Z,97585.38
2023-01-12T05:13:39.923Z,97578.00
2023-01-12T05:16:16.431Z,97576.34
2023-01-12T05:18:47.856Z,97580.03
2023-01-12T05:21:22.065Z,97587.97
2023-01-12T05:23:56.113Z,97572.06
2023-01-12T05:26:26.386Z,97590.75
2023-01-12T05:28:56.675Z,97593.97
2023-01-12T05:31:26.952Z,97580.03
2023-01-12T05:33:57.239Z,97566.56
2023-01-12T05:36:27.512Z,97567.19
2023-01-12T05:39:00.950Z,97569.19
2023-01-12T05:41:31.236Z,97581.75
2023-01-12T05:43:58.939Z,97571.38
2023-01-12T05:46:33.414Z,97571.53
2023-01-12T05:49:03.804Z,97566.63
2023-01-12T05:51:34.674Z,97563.25
2023-01-12T05:54:08.208Z,97570.59
2023-01-12T05:56:38.693Z,97571.22
2023-01-12T05:59:09.033Z,97553.16
2023-01-12T06:01:40.523Z,97564.16
2023-01-12T06:04:10.830Z,97547.63
2023-01-12T06:06:41.093Z,97554.66
2023-01-12T06:09:14.052Z,97555.59
2023-01-12T06:11:56.459Z,97557.72
2023-01-12T06:14:26.988Z,97550.69
2023-01-12T06:16:57.439Z,97556.22
2023-01-12T06:19:27.787Z,97551.25
2023-01-12T06:21:59.666Z,97542.06
2023-01-12T06:24:32.568Z,97550.81
2023-01-12T06:27:03.083Z,97527.53
2023-01-12T06:29:33.524Z,97534.72
2023-01-12T06:32:03.889Z,97538.72
2023-01-12T06:34:35.530Z,97529.38
2023-01-12T06:37:07.368Z,97544.72
2023-01-12T06:39:40.348Z,97545.19
2023-01-12T06:42:23.122Z,97547.28
2023-01-12T06:44:53.401Z,97532.59
2023-01-12T06:47:23.699Z,97536.91
2023-01-12T06:49:54.451Z,97533.38
2023-01-12T06:52:27.207Z,97532.47
2023-01-12T06:55:00.144Z,97541.03
2023-01-12T06:57:30.451Z,97536.28
2023-01-12T07:00:00.715Z,97533.69
2023-01-12T07:02:31.053Z,97546.25
2023-01-12T07:05:01.333Z,97538.44
2023-01-12T07:07:31.663Z,97561.69
2023-01-12T07:10:04.869Z,97558.34
2023-01-12T07:12:35.500Z,97550.69
2023-01-12T07:15:06.365Z,97548.38
2023-01-12T07:17:36.802Z,97552.22
2023-01-12T07:20:08.495Z,97552.06
2023-01-12T07:22:39.545Z,97545.66
2023-01-12T07:25:13.268Z,97551.44
2023-01-12T07:27:51.873Z,97533.69
2023-01-12T07:30:23.037Z,97558.38
2023-01-12T07:32:53.225Z,97523.72
2023-01-12T07:35:25.309Z,97541.50
2023-01-12T07:37:56.875Z,97515.75
2023-01-12T07:40:29.861Z,97526.78
2023-01-12T07:43:03.740Z,97521.56
2023-01-12T07:45:35.430Z,97500.88
2023-01-12T07:48:06.243Z,97511.16
2023-01-12T07:50:37.025Z,97516.97
2023-01-12T07:53:07.789Z,97507.91
2023-01-12T07:55:43.993Z,97501.47
2023-01-12T07:58:15.513Z,97497.63
2023-01-12T08:00:45.809Z,97529.22
2023-01-12T08:03:16.782Z,97522.16
2023-01-12T08:05:47.177Z,97528.75
2023-01-12T08:08:17.683Z,97508.03
2023-01-12T08:10:50.948Z,97532.09
2023-01-12T08:13:23.480Z,97518.78
2023-01-12T08:15:55.174Z,97523.19
2023-01-12T08:18:30.940Z,97542.66
2023-01-12T08:21:05.758Z,97529.47
2023-01-12T08:23:42.073Z,97512.78
2023-01-12T08:26:23.966Z,97518.31
2023-01-12T08:28:59.589Z,97508.50
2023-01-12T08:31:30.317Z,97508.31
2023-01-12T08:34:00.709Z,97504.03
2023-01-12T08:36:33.929Z,97511.69
2023-01-12T08:39:04.947Z,97516.28
2023-01-12T08:41:37.802Z,97517.94
2023-01-12T08:44:11.142Z,97511.03
2023-01-12T08:46:44.015Z,97503.19
2023-01-12T08:49:16.832Z,97514.41
2023-01-12T08:51:48.146Z,97525.16
2023-01-12T08:54:20.993Z,97523.78
2023-01-12T08:56:54.946Z,97526.66
2023-01-12T08:59:25.664Z,97501.50
2023-01-12T09:01:56.594Z,97511.63
2023-01-12T09:04:27.397Z,97525.41
2023-01-12T09:07:00.010Z,97522.66
2023-01-12T09:09:30.699Z,97497.34
2023-01-12T09:12:04.203Z,97488.63
2023-01-12T09:14:38.653Z,97496.88
2023-01-12T09:17:09.727Z,97490.56
2023-01-12T09:19:40.203Z,97489.81
2023-01-12T09:22:10.729Z,97472.19
2023-01-12T09:24:41.927Z,97488.28
2023-01-12T09:27:16.131Z,97513.28
2023-01-12T09:29:46.532Z,97496.69
2023-01-12T09:32:18.493Z,97461.06
2023-01-12T09:34:51.900Z,97478.72
2023-01-12T09:37:22.272Z,97469.84
2023-01-12T09:39:52.572Z,97480.91
2023-01-12T09:42:38.936Z,97468.66
2023-01-12T09:45:34.584Z,97466.47
2023-01-12T09:48:05.015Z,97495.16
2023-01-12T09:50:40.271Z,97460.47
2023-01-12T09:53:19.007Z,97470.91
2023-01-12T09:55:57.866Z,97481.28
2023-01-12T09:58:57.042Z,97451.41
2023-01-12T10:01:30.007Z,97478.38
2023-01-12T10:04:03.469Z,97454.88
2023-01-12T10:06:34.774Z,97438.31
2023-01-12T10:09:08.056Z,97423.38
2023-01-12T10:11:48.844Z,97435.09
2023-01-12T10:14:53.572Z,97435.19
2023-01-12T10:17:50.245Z,97441.25
2023-01-12T10:20:30.394Z,97440.94
2023-01-12T10:23:10.624Z,97425.44
2023-01-12T10:25:44.371Z,97434.00
2023-01-12T10:28:21.425Z,97405.44
2023-01-12T10:30:56.627Z,97458.81
2023-01-12T10:33:29.470Z,97429.19
2023-01-12T10:36:03.754Z,97404.13
2023-01-12T10:38:38.443Z,97421.91
2023-01-12T10:41:17.398Z,97428.53
2023-01-12T10:43:50.195Z,97399.66
2023-01-12T10:46:27.035Z,97393.97
2023-01-12T10:49:18.733Z,97387.19
2023-01-12T10:51:59.868Z,97408.34
2023-01-12T10:54:33.073Z,97400.94
2023-01-12T10:57:08.503Z,97376.34
2023-01-12T10:59:42.972Z,97390.56
2023-01-12T11:02:20.109Z,97356.91
2023-01-12T11:04:52.736Z,97383.19
2023-01-12T11:07:26.514Z,97413.97
2023-01-12T11:09:58.488Z,97373.22
2023-01-12T11:12:36.603Z,97345.69
2023-01-12T11:15:19.791Z,97342.63
2023-01-12T11:18:12.472Z,97342.16
2023-01-12T11:20:49.795Z,97333.41
2023-01-12T11:23:28.595Z,97320.75
2023-01-12T11:26:01.818Z,97343.16
2023-01-12T11:28:37.489Z,97312.56
2023-01-12T11:31:15.438Z,97308.47
2023-01-12T11:33:53.536Z,97306.84
2023-01-12T11:36:30.362Z,97312.09
2023-01-12T11:39:07.503Z,97323.81
2023-01-12T11:42:04.286Z,97314.19
2023-01-12T11:44:40.339Z,97298.19
2023-01-12T11:47:17.658Z,97305.13
2023-01-12T11:50:00.802Z,97285.41
2023-01-12T11:52:32.260Z,97328.47
2023-01-12T11:55:04.133Z,97301.59
2023-01-12T11:57:59.566Z,97289.03
2023-01-12T12:00:50.737Z,97303.59
2023-01-12T12:03:55.488Z,97304.84
2023-01-12T12:06:56.354Z,97312.81
2023-01-12T12:09:46.125Z,97279.22
2023-01-12T12:12:29.249Z,97287.41
2023-01-12T12:15:23.069Z,97288.34
2023-01-12T12:18:06.585Z,97293.97
2023-01-12T12:20:47.978Z,97310.34
2023-01-12T12:23:32.602Z,97293.22
2023-01-12T12:26:14.768Z,97297.56
2023-01-12T12:29:09.483Z,97286.72
2023-01-12T12:32:15.077Z,97294.41
2023-01-12T12:34:59.739Z,97285.25
2023-01-12T12:37:48.939Z,97270.69
2023-01-12T12:40:58.062Z,97290.59
2023-01-12T12:43:46.474Z,97279.66
2023-01-12T12:46:26.096Z,97316.34
2023-01-12T12:49:04.975Z,97283.00
2023-01-12T12:51:37.987Z,97275.16
2023-01-12T12:54:13.761Z,97270.88
2023-01-12T12:56:47.530Z,97283.66
2023-01-12T12:59:57.864Z,97269.91
2023-01-12T13:02:58.825Z,97278.19
2023-01-12T13:05:48.337Z,97279.41
2023-01-12T13:08:26.381Z,97267.59
2023-01-12T13:10:58.891Z,97288.91
2023-01-12T13:13:34.863Z,97268.09
2023-01-12T13:16:51.706Z,97260.09
2023-01-12T13:19:42.200Z,97259.72
2023-01-12T13:22:32.429Z,97259.25
2023-01-12T13:25:04.827Z,97263.06
2023-01-12T13:27:55.890Z,97264.59
2023-01-12T13:30:43.932Z,97264.78
2023-01-12T13:33:27.786Z,97253.91
2023-01-12T13:36:12.046Z,97268.47
2023-01-12T13:39:09.292Z,97295.72
2023-01-12T13:41:53.268Z,97260.59
2023-01-12T13:44:29.820Z,97267.06
2023-01-12T13:47:11.123Z,97270.88
2023-01-12T13:49:50.330Z,97272.41
2023-01-12T13:52:31.204Z,97278.69
2023-01-12T13:55:02.094Z,97270.88
2023-01-12T13:57:34.748Z,97285.34
2023-01-12T14:00:09.259Z,97270.50
2023-01-12T14:02:45.372Z,97264.44
2023-01-12T14:05:40.631Z,97284.69
2023-01-12T14:08:50.800Z,97277.88
2023-01-12T14:12:00.595Z,97273.31
2023-01-12T14:15:08.076Z,97290.44
2023-01-12T14:17:57.703Z,97276.38
2023-01-12T14:20:34.228Z,97281.25
2023-01-12T14:23:21.753Z,97282.63
2023-01-12T14:26:17.555Z,97276.06
2023-01-12T14:28:50.959Z,97279.59
2023-01-12T14:31:33.809Z,97281.41
2023-01-12T14:34:06.800Z,97295.50
2023-01-12T14:36:46.352Z,97280.06
2023-01-12T14:39:23.111Z,97253.22
2023-01-12T14:42:09.101Z,97272.34
2023-01-12T14:45:02.576Z,97279.41
2023-01-12T14:47:35.388Z,97281.69
2023-01-12T14:50:20.570Z,97283.41
2023-01-12T14:52:53.834Z,97280.16
2023-01-12T14:55:31.378Z,97271.72
2023-01-12T14:58:05.902Z,97288.28
2023-01-12T15:00:40.866Z,97291.97
2023-01-12T15:03:35.194Z,97266.94
2023-01-12T15:06:06.382Z,97274.00
2023-01-12T15:08:40.062Z,97279.91
2023-01-12T15:11:12.933Z,97275.63
2023-01-12T15:13:43.686Z,97286.69
2023-01-12T15:16:26.434Z,97278.59
2023-01-12T15:19:09.045Z,97275.06
2023-01-12T15:21:53.386Z,97271.22
2023-01-12T15:24:41.834Z,97292.09
2023-01-12T15:27:16.304Z,97279.81
2023-01-12T15:29:46.897Z,97284.75
2023-01-12T15:32:24.701Z,97293.06
2023-01-12T15:34:56.275Z,97276.94
2023-01-12T15:37:26.666Z,97285.53
2023-01-12T15:40:01.441Z,97302.09
2023-01-12T15:42:31.818Z,97292.56
2023-01-12T15:45:02.217Z,97294.56
2023-01-12T15:47:32.634Z,97302.38
2023-01-12T15:50:03.267Z,97273.84
2023-01-12T15:52:34.588Z,97315.25
2023-01-12T15:55:10.219Z,97293.31
2023-01-12T15:57:40.593Z,97289.16
2023-01-12T16:00:17.796Z,97305.59
2023-01-12T16:02:49.041Z,97288.00
2023-01-12T16:05:21.557Z,97317.41
2023-01-12T16:07:52.228Z,97295.03
2023-01-12T16:10:25.895Z,97284.56
2023-01-12T16:12:56.316Z,97289.16
2023-01-12T16:15:30.148Z,97293.72
2023-01-12T16:18:00.410Z,97289.75
2023-01-12T16:20:30.748Z,97285.25
2023-01-12T16:23:01.045Z,97301.06
2023-01-12T16:25:34.560Z,97289.53
2023-01-12T16:28:06.007Z,97303.19
2023-01-12T16:30:36.782Z,97294.31
2023-01-12T16:33:07.242Z,97293.19
2023-01-12T16:35:37.599Z,97298.69
2023-01-12T16:38:07.862Z,97291.47
2023-01-12T16:40:45.127Z,97278.25
2023-01-12T16:43:20.976Z,97276.03
2023-01-12T16:45:51.589Z,97321.00
2023-01-12T16:48:22.737Z,97277.56
2023-01-12T16:50:53.087Z,97279.09
2023-01-12T16:53:23.559Z,97266.63
2023-01-12T16:55:56.937Z,97267.50
2023-01-12T16:58:27.237Z,97281.13
2023-01-12T17:00:58.683Z,97269.22
2023-01-12T17:03:31.729Z,97260.44
2023-01-12T17:06:02.295Z,97270.34
2023-01-12T17:08:32.954Z,97270.84
2023-01-12T17:11:10.991Z,97291.41
2023-01-12T17:13:41.738Z,97258.75
2023-01-12T17:16:13.998Z,97281.59
2023-01-12T17:18:44.504Z,97265.31
2023-01-12T17:21:17.831Z,97270.66
2023-01-12T17:23:48.736Z,97281.22
2023-01-12T17:26:22.075Z,97272.84
2023-01-12T17:28:52.550Z,97279.88
2023-01-12T17:31:23.264Z,97283.69
2023-01-12T17:33:53.812Z,97280.28
2023-01-12T17:36:24.151Z,97279.50
2023-01-12T17:38:54.469Z,97276.47
2023-01-12T17:41:54.864Z,97286.00
2023-01-12T17:44:25.423Z,97266.81
2023-01-12T17:46:55.760Z,97259.91
2023-01-12T17:49:26.035Z,97257.13
2023-01-12T17:51:56.290Z,97258.38
2023-01-12T17:54:27.757Z,97254.28
2023-01-12T17:57:00.951Z,97251.50
2023-01-12T17:59:31.291Z,97255.00
2023-01-12T18:02:01.700Z,97251.88
2023-01-12T18:04:32.393Z,97253.19
2023-01-12T18:07:02.856Z,97243.41
2023-01-12T18:09:34.128Z,97229.78
2023-01-12T18:12:07.818Z,97240.06
2023-01-12T18:14:38.146Z,97239.88
2023-01-12T18:17:09.331Z,97223.56
2023-01-12T18:19:41.476Z,97239.13
2023-01-12T18:22:12.552Z,97227.00
2023-01-12T18:24:43.297Z,97232.75
2023-01-12T18:27:16.724Z,97253.31
2023-01-12T18:29:47.106Z,97220.16
2023-01-12T18:32:17.469Z,97231.22
2023-01-12T18:34:48.122Z,97241.50
2023-01-12T18:37:19.762Z,97217.59
2023-01-12T18:39:52.613Z,97218.16
2023-01-12T18:42:37.876Z,97222.72
2023-01-12T18:45:09.526Z,97231.69
2023-01-12T18:47:52.475Z,97222.16
2023-01-12T18:50:35.139Z,97221.97
2023-01-12T18:53:17.805Z,97244.34
2023-01-12T18:55:52.503Z,97223.47
2023-01-12T18:58:26.685Z,97228.25
2023-01-12T19:00:57.572Z,97216.25
2023-01-12T19:03:28.130Z,97239.22
2023-01-12T19:06:15.499Z,97235.69
2023-01-12T19:08:58.140Z,97227.94
2023-01-12T19:11:28.458Z,97229.94
2023-01-12T19:14:13.896Z,97231.00
2023-01-12T19:16:56.624Z,97221.00
2023-01-12T19:19:28.203Z,97225.94
2023-01-12T19:22:11.053Z,97231.00
2023-01-12T19:24:54.328Z,97208.13
2023-01-12T19:27:37.148Z,97229.69
2023-01-12T19:30:12.483Z,97217.66
2023-01-12T19:32:42.874Z,97218.13
2023-01-12T19:35:13.416Z,97225.78
2023-01-12T19:37:48.811Z,97218.81
2023-01-12T19:40:26.500Z,97218.50
2023-01-12T19:43:09.211Z,97233.09
2023-01-12T19:45:45.144Z,97217.56
2023-01-12T19:48:17.491Z,97246.44
2023-01-12T19:50:48.579Z,97223.09
2023-01-12T19:53:21.379Z,97202.50
2023-01-12T19:55:52.862Z,97219.84
2023-01-12T19:58:25.205Z,97221.38
2023-01-12T20:00:58.414Z,97220.41
2023-01-12T20:03:28.816Z,97212.13
2023-01-12T20:05:59.210Z,97206.09
2023-01-12T20:08:29.540Z,97206.59
2023-01-12T20:11:05.353Z,97218.13
2023-01-12T20:13:36.166Z,97215.06
2023-01-12T20:16:12.864Z,97196.97
2023-01-12T20:18:43.948Z,97204.50
2023-01-12T20:21:15.775Z,97211.53
2023-01-12T20:23:46.113Z,97187.44
2023-01-12T20:26:16.471Z,97189.81
2023-01-12T20:28:46.862Z,97193.16
2023-01-12T20:31:20.638Z,97188.59
2023-01-12T20:33:51.363Z,97197.53
2023-01-12T20:36:21.900Z,97199.06
2023-01-12T20:38:53.407Z,97185.84
2023-01-12T20:41:23.753Z,97173.53
2023-01-12T20:43:54.303Z,97172.09
2023-01-12T20:46:27.315Z,97182.88
2023-01-12T20:48:59.379Z,97172.31
2023-01-12T20:51:29.653Z,97175.91
2023-01-12T20:54:00.847Z,97176.84
2023-01-12T20:56:31.608Z,97175.63
2023-01-12T20:59:02.560Z,97176.84
2023-01-12T21:01:35.700Z,97173.16
2023-01-12T21:04:07.331Z,97186.00
2023-01-12T21:06:37.827Z,97179.63
2023-01-12T21:09:08.201Z,97189.75
2023-01-12T21:11:38.586Z,97177.16
2023-01-12T21:14:09.251Z,97182.38
2023-01-12T21:16:42.594Z,97185.44
2023-01-12T21:19:12.960Z,97173.41
2023-01-12T21:21:43.267Z,97187.91
2023-01-12T21:24:13.588Z,97178.69
2023-01-12T21:26:43.853Z,97176.19
2023-01-12T21:29:14.284Z,97164.34
2023-01-12T21:31:47.559Z,97165.88
2023-01-12T21:34:18.129Z,97163.41
2023-01-12T21:36:48.813Z,97166.66
2023-01-12T21:39:19.534Z,97178.94
2023-01-12T21:42:02.347Z,97137.94
2023-01-12T21:44:32.734Z,97158.06
2023-01-12T21:47:05.763Z,97149.75
2023-01-12T21:49:36.063Z,97143.13
2023-01-12T21:52:06.484Z,97159.25
2023-01-12T21:54:37.256Z,97144.25
2023-01-12T21:57:07.965Z,97139.69
2023-01-12T21:59:38.361Z,97139.69
2023-01-12T22:02:14.297Z,97130.63
2023-01-12T22:04:44.939Z,97159.03
2023-01-12T22:07:15.456Z,97171.22
2023-01-12T22:09:45.816Z,97151.44
2023-01-12T22:12:16.300Z,97159.63
2023-01-12T22:14:46.556Z,97155.78
2023-01-12T22:17:19.430Z,97138.25
2023-01-12T22:19:49.738Z,97158.63
2023-01-12T22:22:20.064Z,97146.56
2023-01-12T22:24:50.387Z,97149.31
2023-01-12T22:27:20.647Z,97152.19
2023-01-12T22:29:51.007Z,97135.59
2023-01-12T22:32:25.348Z,97143.28
2023-01-12T22:34:56.009Z,97138.84
2023-01-12T22:37:26.565Z,97147.00
2023-01-12T22:39:57.455Z,97142.91
2023-01-12T22:42:47.834Z,97129.31
2023-01-12T22:45:18.425Z,97121.09
2023-01-12T22:47:55.381Z,97117.09
2023-01-12T22:50:26.993Z,97114.81
2023-01-12T22:52:58.092Z,97126.81
2023-01-12T22:55:28.633Z,97132.84
2023-01-12T22:57:59.294Z,97111.66
2023-01-12T23:00:29.787Z,97118.25
2023-01-12T23:03:03.251Z,97117.84
2023-01-12T23:05:36.754Z,97116.31
2023-01-12T23:08:08.917Z,97129.88
2023-01-12T23:10:39.220Z,97120.03
2023-01-12T23:13:17.235Z,97130.06
2023-01-12T23:15:51.075Z,97151.22
2023-01-12T23:18:28.947Z,97119.28
2023-01-12T23:21:11.105Z,97137.69
2023-01-12T23:23:41.892Z,97145.22
2023-01-12T23:26:14.811Z,97132.84
2023-01-12T23:28:50.594Z,97118.50
2023-01-12T23:31:24.104Z,97128.22
2023-01-12T23:33:57.505Z,97123.59
2023-01-12T23:36:30.661Z,97121.59
2023-01-12T23:39:04.696Z,97103.97
2023-01-12T23:41:38.010Z,97098.59
2023-01-12T23:44:10.661Z,97102.03
2023-01-12T23:46:43.315Z,97099.56
2023-01-12T23:49:16.352Z,97093.00
2023-01-12T23:51:46.728Z,97089.47
2023-01-12T23:54:20.893Z,97088.50
2023-01-12T23:56:55.033Z,97088.63
2023-01-12T23:59:25.437Z,97088.28
